^^
Meteo Knjazevac Station Historical Data
Daily Summary for July 2, 2021 Units:  Metric    English   Both
Daily Weekly Monthly Yearly Custom
  High: Low: Average:
Temperature: 21.2 °C 8.5 °C 15.1 °C
Dew Point: 14.3 °C 7.9 °C 11 °C
Humidity: 99% 54% 79%
Wind Speed: 14.5km/h 0km/h 4.8km/h
Wind Gust: 32.2km/h - -
Wind- - SSW
Pressure: 1022.2 hPa 1019.5 hPa -
Precipitation: 0 mm    
Historical Graphs
 
 
Tabular Data for July 2, 2021
Time Temperature Dew Point Pressure Wind Wind Speed Wind Gust Humidity Rainfall Rate (Hourly) solar Conditions
00:00 11 °C 10.8 °C 1019.5 hPa ESE 4.8 km/h 11.3 km/h 99% 0 mm 0 W/m2
00:10 10.9 °C 10.8 °C 1019.5 hPa SE 3.2 km/h 8 km/h 99% 0 mm 0 W/m2
00:20 10.9 °C 10.7 °C 1019.5 hPa SE 1.6 km/h 6.4 km/h 99% 0 mm 0 W/m2
00:30 10.9 °C 10.7 °C 1019.5 hPa SE 1.6 km/h 8 km/h 99% 0 mm 0 W/m2
00:40 10.8 °C 10.7 °C 1019.5 hPa SE 4.8 km/h 9.7 km/h 99% 0 mm 0 W/m2
00:50 10.8 °C 10.7 °C 1019.5 hPa SE 1.6 km/h 8 km/h 99% 0 mm 0 W/m2
01:00 10.8 °C 10.7 °C 1019.5 hPa SE 4.8 km/h 9.7 km/h 99% 0 mm 0 W/m2
01:10 10.8 °C 10.7 °C 1019.5 hPa ESE 1.6 km/h 8 km/h 99% 0 mm 0 W/m2
01:20 10.8 °C 10.7 °C 1019.5 hPa East 3.2 km/h 6.4 km/h 99% 0 mm 0 W/m2
01:30 10.8 °C 10.7 °C 1019.5 hPa East 1.6 km/h 8 km/h 99% 0 mm 0 W/m2
01:40 10.8 °C 10.7 °C 1019.5 hPa East 3.2 km/h 8 km/h 99% 0 mm 0 W/m2
01:50 10.8 °C 10.7 °C 1019.5 hPa ESE 1.6 km/h 8 km/h 99% 0 mm 0 W/m2
02:00 10.7 °C 10.6 °C 1019.5 hPa ESE 3.2 km/h 8 km/h 99% 0 mm 0 W/m2
02:10 10.7 °C 10.6 °C 1019.5 hPa SE 3.2 km/h 6.4 km/h 99% 0 mm 0 W/m2
02:20 10.6 °C 10.4 °C 1019.5 hPa ESE 1.6 km/h 8 km/h 99% 0 mm 0 W/m2
02:30 10.6 °C 10.4 °C 1019.5 hPa SE 1.6 km/h 8 km/h 99% 0 mm 0 W/m2
02:40 10.6 °C 10.4 °C 1019.5 hPa SE 3.2 km/h 8 km/h 99% 0 mm 0 W/m2
02:50 10.6 °C 10.4 °C 1019.5 hPa SE 1.6 km/h 4.8 km/h 99% 0 mm 0 W/m2
03:00 10.5 °C 10.3 °C 1019.9 hPa Calm   4.8 km/h 99% 0 mm 0 W/m2
03:10 10.4 °C 10.2 °C 1019.9 hPa Calm   3.2 km/h 99% 0 mm 0 W/m2
03:20 10.3 °C 10.2 °C 1019.9 hPa Calm   3.2 km/h 99% 0 mm 0 W/m2
03:30 10.2 °C 10.1 °C 1019.9 hPa Calm   3.2 km/h 99% 0 mm 0 W/m2
03:40 10.1 °C 9.9 °C 1019.5 hPa Calm   9.7 km/h 99% 0 mm 0 W/m2
03:50 10 °C 9.8 °C 1019.9 hPa Calm   4.8 km/h 99% 0 mm 0 W/m2
04:00 9.8 °C 9.7 °C 1019.9 hPa SW 1.6 km/h 3.2 km/h 99% 0 mm 0 W/m2
04:10 9.7 °C 9.6 °C 1019.9 hPa Calm   3.2 km/h 99% 0 mm 0 W/m2
04:20 9.5 °C 9.3 °C 1019.9 hPa SE 3.2 km/h 4.8 km/h 99% 0 mm 0 W/m2
04:30 9.4 °C 9.3 °C 1019.9 hPa Calm   6.4 km/h 99% 0 mm 0 W/m2
04:40 9.2 °C 9.1 °C 1019.9 hPa SW 1.6 km/h 3.2 km/h 99% 0 mm 0 W/m2
04:50 9.1 °C 8.9 °C 1020.2 hPa West 1.6 km/h 3.2 km/h 99% 0 mm 0 W/m2
05:00 8.9 °C 8.8 °C 1020.2 hPa SSW 1.6 km/h 4.8 km/h 99% 0 mm 6 W/m2
05:10 8.8 °C 8.7 °C 1020.2 hPa Calm   4.8 km/h 99% 0 mm 13 W/m2
05:20 8.7 °C 8.6 °C 1020.2 hPa North 1.6 km/h 3.2 km/h 99% 0 mm 23 W/m2
05:30 8.6 °C 8.4 °C 1020.2 hPa Calm   3.2 km/h 99% 0 mm 34 W/m2
05:40 8.5 °C 8.3 °C 1020.2 hPa Calm   1.6 km/h 99% 0 mm 43 W/m2
05:50 8.5 °C 8.3 °C 1020.5 hPa East 3.2 km/h 6.4 km/h 99% 0 mm 74 W/m2
06:00 8.6 °C 8.4 °C 1020.5 hPa East 3.2 km/h 6.4 km/h 99% 0 mm 94 W/m2
06:10 8.7 °C 8.6 °C 1020.5 hPa Calm   4.8 km/h 99% 0 mm 119 W/m2
06:20 8.9 °C 8.7 °C 1020.5 hPa SE 3.2 km/h 6.4 km/h 99% 0 mm 146 W/m2
06:30 9.1 °C 8.9 °C 1020.9 hPa SSE 1.6 km/h 8 km/h 99% 0 mm 173 W/m2
06:40 9.2 °C 9.1 °C 1020.9 hPa East 1.6 km/h 8 km/h 99% 0 mm 165 W/m2
06:50 9.5 °C 9.3 °C 1020.9 hPa ESE 4.8 km/h 11.3 km/h 99% 0 mm 189 W/m2
07:00 9.8 °C 9.7 °C 1020.9 hPa East 4.8 km/h 9.7 km/h 99% 0 mm 225 W/m2
07:10 10.1 °C 9.9 °C 1020.9 hPa ESE 3.2 km/h 9.7 km/h 99% 0 mm 260 W/m2
07:20 10.3 °C 10.2 °C 1020.9 hPa SE 1.6 km/h 8 km/h 99% 0 mm 305 W/m2
07:30 10.7 °C 10.6 °C 1020.9 hPa SE 4.8 km/h 8 km/h 99% 0 mm 344 W/m2
07:40 11 °C 10.8 °C 1020.9 hPa ESE 8 km/h 12.9 km/h 99% 0 mm 383 W/m2
07:50 11.4 °C 11.2 °C 1020.9 hPa ESE 8 km/h 11.3 km/h 99% 0 mm 425 W/m2
08:00 11.8 °C 11.6 °C 1020.9 hPa ESE 4.8 km/h 11.3 km/h 99% 0 mm 455 W/m2
08:10 12.2 °C 11.9 °C 1020.9 hPa SE 3.2 km/h 11.3 km/h 98% 0 mm 498 W/m2
08:20 12.5 °C 11.9 °C 1020.9 hPa SE 4.8 km/h 11.3 km/h 96% 0 mm 535 W/m2
08:30 12.9 °C 12.3 °C 1020.9 hPa SE 3.2 km/h 9.7 km/h 96% 0 mm 569 W/m2
08:40 13.4 °C 12.4 °C 1020.9 hPa SSE 3.2 km/h 12.9 km/h 94% 0 mm 604 W/m2
09:00 15 °C 13.6 °C 1020.9 hPa SE 4.8 km/h 11.3 km/h 91% 0 mm 666 W/m2
09:10 15.7 °C 13.4 °C 1020.9 hPa SSE 4.8 km/h 9.7 km/h 86% 0 mm 695 W/m2
09:20 16.4 °C 13.8 °C 1020.9 hPa SE 4.8 km/h 9.7 km/h 85% 0 mm 723 W/m2
09:30 16.9 °C 13.6 °C 1020.9 hPa Calm   11.3 km/h 81% 0 mm 748 W/m2
09:40 17.4 °C 14.1 °C 1020.9 hPa Calm   11.3 km/h 81% 0 mm 772 W/m2
09:50 17.9 °C 14 °C 1020.9 hPa South 1.6 km/h 9.7 km/h 78% 0 mm 794 W/m2
10:00 18.3 °C 13.8 °C 1020.9 hPa SE 4.8 km/h 11.3 km/h 75% 0 mm 815 W/m2
10:10 18.8 °C 14.3 °C 1020.5 hPa East 4.8 km/h 8 km/h 75% 0 mm 318 W/m2
10:20 18.4 °C 13.7 °C 1020.5 hPa East 1.6 km/h 9.7 km/h 74% 0 mm 236 W/m2
10:30 18.2 °C 13.3 °C 1020.9 hPa WNW 3.2 km/h 9.7 km/h 73% 0 mm 871 W/m2
10:40 18.3 °C 13.2 °C 1020.5 hPa NNE 1.6 km/h 9.7 km/h 72% 0 mm 315 W/m2
10:50 18.5 °C 13.8 °C 1020.5 hPa NNW 1.6 km/h 8 km/h 74% 0 mm 258 W/m2
11:00 18.3 °C 13.4 °C 1020.5 hPa West 9.7 km/h 14.5 km/h 73% 0 mm 288 W/m2
11:10 18.1 °C 13.2 °C 1020.5 hPa West 4.8 km/h 14.5 km/h 73% 0 mm 144 W/m2
11:20 17.9 °C 13 °C 1020.5 hPa WNW 4.8 km/h 16.1 km/h 73% 0 mm 292 W/m2
11:30 18.3 °C 13.4 °C 1020.5 hPa West 11.3 km/h 20.9 km/h 73% 0 mm 921 W/m2
11:40 18.7 °C 13.6 °C 1020.5 hPa WNW 11.3 km/h 24.1 km/h 72% 0 mm 377 W/m2
11:50 18.6 °C 13.4 °C 1020.5 hPa West 4.8 km/h 19.3 km/h 72% 0 mm 409 W/m2
12:20 19.2 °C 13.2 °C 1020.5 hPa West 8 km/h 20.9 km/h 68% 0 mm 403 W/m2
12:30 19.5 °C 12.7 °C 1020.5 hPa West 11.3 km/h 20.9 km/h 65% 0 mm 503 W/m2
12:40 19.9 °C 13.1 °C 1020.5 hPa West 12.9 km/h 22.5 km/h 65% 0 mm 584 W/m2
12:50 20.1 °C 13.1 °C 1020.5 hPa West 11.3 km/h 20.9 km/h 64% 0 mm 748 W/m2
13:00 20.3 °C 12.8 °C 1020.5 hPa West 12.9 km/h 20.9 km/h 62% 0 mm 963 W/m2
13:10 20.2 °C 12.2 °C 1020.5 hPa West 11.3 km/h 20.9 km/h 60% 0 mm 543 W/m2
13:20 20.5 °C 12.2 °C 1020.5 hPa WNW 9.7 km/h 27.4 km/h 59% 0 mm 949 W/m2
13:30 20.8 °C 12.5 °C 1020.5 hPa West 11.3 km/h 25.7 km/h 59% 0 mm 940 W/m2
13:40 21.1 °C 12.8 °C 1020.2 hPa West 11.3 km/h 29 km/h 59% 0 mm 930 W/m2
13:50 20.9 °C 12.1 °C 1020.5 hPa WNW 14.5 km/h 32.2 km/h 57% 0 mm 918 W/m2
14:00 21 °C 12.2 °C 1020.5 hPa West 12.9 km/h 25.7 km/h 57% 0 mm 262 W/m2
14:10 20.6 °C 11.8 °C 1020.5 hPa West 12.9 km/h 22.5 km/h 57% 0 mm 891 W/m2
14:20 20.8 °C 11.9 °C 1020.2 hPa West 11.3 km/h 22.5 km/h 57% 0 mm 216 W/m2
14:30 20.4 °C 11.6 °C 1020.2 hPa West 9.7 km/h 27.4 km/h 57% 0 mm 230 W/m2
14:40 20.4 °C 11.8 °C 1020.2 hPa West 9.7 km/h 22.5 km/h 58% 0 mm 839 W/m2
14:50 20.8 °C 11.2 °C 1020.2 hPa West 14.5 km/h 27.4 km/h 54% 0 mm 196 W/m2
15:00 20.6 °C 11.2 °C 1020.5 hPa West 11.3 km/h 25.7 km/h 55% 0 mm 799 W/m2
15:10 20.6 °C 11.8 °C 1020.5 hPa West 12.9 km/h 24.1 km/h 57% 0 mm 182 W/m2
15:20 20.4 °C 11.9 °C 1020.5 hPa West 11.3 km/h 20.9 km/h 58% 0 mm 754 W/m2
15:30 20.8 °C 11.9 °C 1020.5 hPa West 8 km/h 20.9 km/h 57% 0 mm 230 W/m2
15:40 20.4 °C 11.8 °C 1020.5 hPa WNW 8 km/h 20.9 km/h 58% 0 mm 168 W/m2
15:50 20.1 °C 11.3 °C 1020.5 hPa WNW 4.8 km/h 16.1 km/h 57% 0 mm 217 W/m2
16:00 20 °C 11.2 °C 1020.5 hPa West 12.9 km/h 20.9 km/h 57% 0 mm 191 W/m2
16:10 20.1 °C 11.6 °C 1020.5 hPa West 8 km/h 19.3 km/h 58% 0 mm 624 W/m2
16:20 20.1 °C 11.6 °C 1020.5 hPa West 4.8 km/h 12.9 km/h 58% 0 mm 213 W/m2
16:30 20.4 °C 11.6 °C 1020.5 hPa West 11.3 km/h 22.5 km/h 57% 0 mm 198 W/m2
16:40 20.6 °C 12.1 °C 1020.5 hPa West 4.8 km/h 22.5 km/h 58% 0 mm 538 W/m2
16:50 20.6 °C 11.2 °C 1020.5 hPa WNW 12.9 km/h 25.7 km/h 55% 0 mm 304 W/m2
17:00 20.4 °C 11.6 °C 1020.5 hPa WNW 8 km/h 22.5 km/h 57% 0 mm 478 W/m2
17:10 20.9 °C 12.1 °C 1020.5 hPa West 11.3 km/h 19.3 km/h 57% 0 mm 220 W/m2
17:20 20.7 °C 11.3 °C 1020.5 hPa West 9.7 km/h 20.9 km/h 55% 0 mm 184 W/m2
17:30 20.5 °C 11.2 °C 1020.5 hPa West 14.5 km/h 22.5 km/h 55% 0 mm 155 W/m2
17:40 20.6 °C 10.9 °C 1020.5 hPa West 11.3 km/h 22.5 km/h 54% 0 mm 355 W/m2
17:50 20.9 °C 11.2 °C 1020.2 hPa West 12.9 km/h 24.1 km/h 54% 0 mm 325 W/m2
18:00 21.2 °C 11.5 °C 1020.5 hPa WNW 9.7 km/h 22.5 km/h 54% 0 mm 294 W/m2
18:10 21.2 °C 11.5 °C 1020.5 hPa West 9.7 km/h 22.5 km/h 54% 0 mm 264 W/m2
18:20 21.1 °C 11.4 °C 1020.5 hPa West 8 km/h 19.3 km/h 54% 0 mm 232 W/m2
18:30 21.1 °C 11.4 °C 1020.5 hPa WNW 9.7 km/h 19.3 km/h 54% 0 mm 196 W/m2
18:40 21 °C 11.6 °C 1020.5 hPa West 4.8 km/h 12.9 km/h 55% 0 mm 167 W/m2
18:50 20.8 °C 11.2 °C 1020.5 hPa WNW 9.7 km/h 19.3 km/h 54% 0 mm 136 W/m2
19:00 20.7 °C 11.3 °C 1020.9 hPa WNW 4.8 km/h 11.3 km/h 55% 0 mm 108 W/m2
19:10 20.4 °C 11.6 °C 1020.9 hPa WNW 1.6 km/h 9.7 km/h 57% 0 mm 50 W/m2
19:20 20.1 °C 12.1 °C 1020.9 hPa WNW 1.6 km/h 4.8 km/h 60% 0 mm 50 W/m2
19:30 19.7 °C 11.4 °C 1020.9 hPa West 1.6 km/h 8 km/h 59% 0 mm 37 W/m2
19:40 19.3 °C 11.3 °C 1020.9 hPa West 1.6 km/h 8 km/h 60% 0 mm 25 W/m2
19:50 18.8 °C 10.8 °C 1021.2 hPa West 3.2 km/h 6.4 km/h 60% 0 mm 14 W/m2
20:00 18.2 °C 10.8 °C 1021.2 hPa West 3.2 km/h 8 km/h 62% 0 mm 6 W/m2
20:10 17.8 °C 11.1 °C 1021.2 hPa WSW 3.2 km/h 8 km/h 65% 0 mm 0 W/m2
20:20 17.2 °C 11.2 °C 1021.2 hPa West 3.2 km/h 6.4 km/h 68% 0 mm 0 W/m2
20:30 16.6 °C 10.7 °C 1021.2 hPa West 4.8 km/h 8 km/h 68% 0 mm 0 W/m2
20:40 16.1 °C 10.6 °C 1021.6 hPa WSW 3.2 km/h 8 km/h 70% 0 mm 0 W/m2
20:50 15.6 °C 10.6 °C 1021.6 hPa WSW 3.2 km/h 8 km/h 72% 0 mm 0 W/m2
21:00 15.2 °C 10.6 °C 1021.6 hPa Calm   3.2 km/h 74% 0 mm 0 W/m2
21:10 14.7 °C 10.3 °C 1021.6 hPa Calm   3.2 km/h 75% 0 mm 0 W/m2
21:20 14.3 °C 9.9 °C 1021.9 hPa NNE 3.2 km/h 6.4 km/h 75% 0 mm 0 W/m2
21:30 14 °C 10.1 °C 1021.9 hPa Calm   4.8 km/h 77% 0 mm 0 W/m2
21:40 13.7 °C 9.9 °C 1021.9 hPa WSW 1.6 km/h 3.2 km/h 78% 0 mm 0 W/m2
21:50 13.3 °C 9.9 °C 1021.9 hPa West 1.6 km/h 3.2 km/h 80% 0 mm 0 W/m2
22:00 12.9 °C 9.7 °C 1022.2 hPa WNW 1.6 km/h 3.2 km/h 81% 0 mm 0 W/m2
22:10 12.7 °C 9.3 °C 1022.2 hPa WNW 3.2 km/h 4.8 km/h 80% 0 mm 0 W/m2
22:20 12.4 °C 9.1 °C 1022.2 hPa Calm   4.8 km/h 80% 0 mm 0 W/m2
22:30 12.1 °C 8.8 °C 1022.2 hPa Calm   4.8 km/h 80% 0 mm 0 W/m2
22:40 11.8 °C 8.6 °C 1022.2 hPa SE 1.6 km/h 6.4 km/h 81% 0 mm 0 W/m2
22:50 11.5 °C 8.3 °C 1022.2 hPa SSE 1.6 km/h 6.4 km/h 81% 0 mm 0 W/m2
23:00 11.3 °C 8.5 °C 1022.2 hPa SSE 1.6 km/h 3.2 km/h 83% 0 mm 0 W/m2
23:10 11.1 °C 8.5 °C 1022.2 hPa Calm   1.6 km/h 84% 0 mm 0 W/m2
23:20 10.9 °C 8.5 °C 1022.2 hPa Calm   3.2 km/h 85% 0 mm 0 W/m2
23:30 10.7 °C 8.3 °C 1022.2 hPa Calm   3.2 km/h 85% 0 mm 0 W/m2
23:40 10.6 °C 8.3 °C 1022.2 hPa SW 1.6 km/h 3.2 km/h 86% 0 mm 0 W/m2
23:50 10.3 °C 7.9 °C 1022.2 hPa SW 3.2 km/h 4.8 km/h 85% 0 mm 0 W/m2
Knjazevac, Serbia
Compliments of Weather Underground - 2 mb